createdAt,value
2019-05-19T00:00:21.880Z,90.50
2019-05-19T00:01:26.138Z,90.50
2019-05-19T00:02:30.903Z,90.50
2019-05-19T00:03:35.121Z,90.60
2019-05-19T00:04:39.900Z,90.60
2019-05-19T00:05:44.157Z,90.70
2019-05-19T00:06:48.934Z,90.70
2019-05-19T00:07:53.149Z,90.70
2019-05-19T00:08:57.930Z,90.70
2019-05-19T00:10:02.187Z,90.70
2019-05-19T00:11:07.111Z,91.00
2019-05-19T00:12:11.731Z,90.80
2019-05-19T00:13:16.506Z,91.10
2019-05-19T00:14:20.718Z,90.90
2019-05-19T00:15:25.486Z,90.90
2019-05-19T00:16:29.743Z,90.90
2019-05-19T00:17:34.528Z,90.90
2019-05-19T00:18:39.041Z,90.90
2019-05-19T00:19:43.817Z,91.20
2019-05-19T00:20:48.040Z,91.00
2019-05-19T00:21:52.859Z,91.00
2019-05-19T00:22:57.079Z,91.00
2019-05-19T00:24:01.855Z,91.00
2019-05-19T00:25:06.078Z,91.00
2019-05-19T00:26:10.889Z,90.90
2019-05-19T00:27:15.098Z,91.00
2019-05-19T00:28:19.896Z,91.10
2019-05-19T00:29:24.195Z,91.10
2019-05-19T00:30:28.976Z,91.10
2019-05-19T00:31:33.229Z,91.10
2019-05-19T00:32:38.001Z,91.10
2019-05-19T00:33:42.226Z,91.10
2019-05-19T00:34:47.006Z,91.10
2019-05-19T00:35:51.243Z,91.10
2019-05-19T00:36:56.016Z,91.10
2019-05-19T00:38:00.239Z,91.20
2019-05-19T00:39:06.112Z,91.20
2019-05-19T00:40:10.345Z,91.20
2019-05-19T00:41:15.110Z,91.10
2019-05-19T00:42:19.415Z,91.20
2019-05-19T00:43:24.198Z,91.20
2019-05-19T00:44:28.405Z,91.20
2019-05-19T00:45:33.142Z,91.40
2019-05-19T00:46:37.383Z,91.20
2019-05-19T00:47:42.181Z,91.20
2019-05-19T00:48:46.394Z,91.20
2019-05-19T00:49:51.170Z,91.20
2019-05-19T00:50:55.374Z,91.20
2019-05-19T00:52:00.208Z,91.20
2019-05-19T00:53:04.430Z,91.20
2019-05-19T00:54:09.207Z,91.50
2019-05-19T00:55:13.422Z,91.20
2019-05-19T00:56:18.227Z,91.20
2019-05-19T00:57:22.479Z,91.40
2019-05-19T00:58:27.286Z,91.10
2019-05-19T00:59:31.517Z,91.20
2019-05-19T01:00:36.295Z,91.30
2019-05-19T01:01:40.520Z,91.30
2019-05-19T01:02:45.334Z,91.30
2019-05-19T01:03:49.507Z,91.30
2019-05-19T01:04:54.271Z,91.30
2019-05-19T01:05:58.493Z,91.60
2019-05-19T01:07:03.308Z,91.40
2019-05-19T01:08:07.528Z,91.40
2019-05-19T01:09:12.308Z,91.40
2019-05-19T01:10:16.547Z,91.50
2019-05-19T01:11:21.363Z,91.50
2019-05-19T01:12:25.751Z,91.50
2019-05-19T01:13:30.514Z,91.50
2019-05-19T01:14:34.672Z,91.60
2019-05-19T01:15:39.452Z,91.70
2019-05-19T01:16:43.675Z,91.50
2019-05-19T01:17:48.488Z,91.50
2019-05-19T01:18:52.701Z,91.90
2019-05-19T01:19:57.476Z,91.60
2019-05-19T01:21:01.738Z,91.60
2019-05-19T01:22:06.499Z,91.70
2019-05-19T01:23:10.736Z,91.60
2019-05-19T01:24:15.512Z,91.90
2019-05-19T01:25:19.738Z,91.70
2019-05-19T01:26:24.515Z,91.60
2019-05-19T01:27:28.784Z,91.60
2019-05-19T01:28:33.538Z,91.60
2019-05-19T01:29:37.796Z,91.60
2019-05-19T01:30:42.571Z,91.70
2019-05-19T01:31:46.791Z,91.70
2019-05-19T01:32:51.590Z,91.70
2019-05-19T01:33:55.826Z,91.70
2019-05-19T01:35:00.598Z,91.70
2019-05-19T01:36:04.840Z,91.70
2019-05-19T01:37:09.611Z,91.70
2019-05-19T01:38:13.862Z,91.70
2019-05-19T01:39:18.639Z,91.70
2019-05-19T01:40:22.864Z,91.70
2019-05-19T01:41:27.664Z,91.70
2019-05-19T01:42:31.898Z,91.70
2019-05-19T01:43:36.628Z,91.80
2019-05-19T01:44:40.853Z,91.90
2019-05-19T01:45:45.651Z,92.00
2019-05-19T01:46:49.885Z,92.00
2019-05-19T01:47:54.684Z,92.00
2019-05-19T01:48:58.890Z,92.00
2019-05-19T01:50:17.120Z,92.00
2019-05-19T01:51:09.612Z,92.10
2019-05-19T01:52:14.378Z,92.10
2019-05-19T01:53:18.636Z,92.40
2019-05-19T01:54:23.415Z,92.40
2019-05-19T01:55:27.643Z,92.20
2019-05-19T01:56:32.423Z,92.10
2019-05-19T01:57:36.720Z,92.20
2019-05-19T01:58:41.459Z,92.20
2019-05-19T01:59:45.667Z,92.40
2019-05-19T02:00:50.452Z,92.20
2019-05-19T02:01:54.667Z,92.20
2019-05-19T02:02:59.587Z,92.30
2019-05-19T02:04:03.818Z,92.50
2019-05-19T02:05:09.191Z,92.30
2019-05-19T02:06:13.420Z,92.20
2019-05-19T02:07:18.199Z,92.50
2019-05-19T02:08:22.454Z,92.30
2019-05-19T02:09:27.234Z,92.30
2019-05-19T02:10:31.449Z,92.30
2019-05-19T02:11:36.238Z,92.30
2019-05-19T02:12:40.452Z,92.30
2019-05-19T02:13:45.263Z,92.30
2019-05-19T02:14:49.495Z,92.30
2019-05-19T02:15:54.260Z,92.40
2019-05-19T02:16:58.496Z,92.40
2019-05-19T02:18:03.298Z,92.40
2019-05-19T02:19:07.575Z,92.40
2019-05-19T02:20:12.360Z,92.40
2019-05-19T02:21:16.603Z,92.40
2019-05-19T02:22:21.383Z,92.40
2019-05-19T02:23:25.634Z,92.40
2019-05-19T02:24:30.423Z,92.40
2019-05-19T02:25:34.665Z,92.40
2019-05-19T02:26:39.430Z,92.40
2019-05-19T02:27:43.646Z,92.40
2019-05-19T02:28:48.471Z,92.40
2019-05-19T02:29:52.692Z,92.50
2019-05-19T02:30:57.482Z,92.50
2019-05-19T02:32:01.683Z,92.50
2019-05-19T02:33:06.459Z,92.50
2019-05-19T02:34:10.790Z,92.50
2019-05-19T02:35:15.890Z,92.20
2019-05-19T02:36:20.104Z,92.50
2019-05-19T02:37:24.911Z,92.50
2019-05-19T02:38:29.101Z,92.80
2019-05-19T02:39:34.022Z,92.50
2019-05-19T02:40:39.846Z,92.60
2019-05-19T02:41:44.647Z,92.60
2019-05-19T02:42:48.888Z,92.50
2019-05-19T02:43:53.720Z,92.50
2019-05-19T02:44:58.000Z,92.60
2019-05-19T02:46:02.763Z,92.60
2019-05-19T02:47:07.004Z,92.60
2019-05-19T02:48:12.795Z,92.70
2019-05-19T02:49:17.378Z,92.90
2019-05-19T02:50:22.082Z,92.60
2019-05-19T02:51:26.317Z,92.70
2019-05-19T02:52:31.097Z,92.70
2019-05-19T02:53:35.316Z,92.60
2019-05-19T02:54:40.135Z,92.70
2019-05-19T02:55:44.346Z,92.70
2019-05-19T02:56:49.045Z,92.70
2019-05-19T02:57:53.264Z,92.70
2019-05-19T02:58:58.077Z,92.70
2019-05-19T03:00:02.434Z,92.70
2019-05-19T03:01:07.311Z,92.70
2019-05-19T03:02:13.135Z,93.10
2019-05-19T03:03:17.903Z,92.80
2019-05-19T03:04:22.147Z,93.00
2019-05-19T03:05:26.964Z,92.80
2019-05-19T03:06:31.179Z,93.00
2019-05-19T03:07:35.956Z,92.80
2019-05-19T03:08:40.168Z,92.70
2019-05-19T03:09:45.015Z,92.70
2019-05-19T03:10:49.227Z,92.90
2019-05-19T03:11:54.986Z,92.70
2019-05-19T03:12:59.157Z,92.70
2019-05-19T03:14:03.944Z,92.70
2019-05-19T03:15:08.250Z,92.80
2019-05-19T03:16:13.025Z,92.70
2019-05-19T03:17:17.245Z,92.70
2019-05-19T03:18:22.028Z,92.70
2019-05-19T03:19:26.284Z,92.70
2019-05-19T03:20:31.057Z,92.70
2019-05-19T03:21:35.284Z,92.70
2019-05-19T03:22:40.078Z,92.70
2019-05-19T03:23:44.304Z,92.70
2019-05-19T03:24:49.095Z,92.80
2019-05-19T03:25:53.408Z,92.80
2019-05-19T03:26:58.179Z,92.80
2019-05-19T03:28:02.399Z,92.80
2019-05-19T03:29:07.379Z,92.80
2019-05-19T03:30:46.001Z,92.80
2019-05-19T03:31:56.980Z,92.90
2019-05-19T03:33:02.862Z,92.80
2019-05-19T03:34:07.074Z,92.80
2019-05-19T03:35:11.896Z,92.80
2019-05-19T03:36:16.117Z,92.80
2019-05-19T03:37:20.901Z,92.80
2019-05-19T03:38:25.111Z,92.80
2019-05-19T03:39:29.891Z,92.80
2019-05-19T03:40:34.139Z,92.80
2019-05-19T03:41:38.915Z,92.90
2019-05-19T03:42:43.144Z,92.90
2019-05-19T03:43:47.917Z,92.90
2019-05-19T03:44:52.197Z,92.90
2019-05-19T03:45:56.987Z,92.90
2019-05-19T03:47:01.273Z,92.90
2019-05-19T03:48:06.224Z,93.20
2019-05-19T03:49:10.447Z,92.90
2019-05-19T03:50:15.266Z,92.90
2019-05-19T03:51:30.254Z,92.90
2019-05-19T03:52:25.827Z,92.90
2019-05-19T03:53:30.056Z,92.90
2019-05-19T03:54:34.816Z,92.90
2019-05-19T03:55:39.059Z,93.00
2019-05-19T03:56:43.839Z,93.00
2019-05-19T03:57:48.050Z,92.90
2019-05-19T03:58:52.823Z,92.90
2019-05-19T03:59:57.042Z,93.00
2019-05-19T04:01:01.845Z,93.30
2019-05-19T04:02:06.073Z,93.00
2019-05-19T04:03:10.843Z,93.00
2019-05-19T04:04:15.063Z,93.00
2019-05-19T04:05:19.863Z,93.30
2019-05-19T04:06:24.080Z,93.00
2019-05-19T04:07:28.858Z,93.00
2019-05-19T04:08:33.091Z,93.00
2019-05-19T04:09:37.855Z,93.00
2019-05-19T04:10:42.139Z,93.10
2019-05-19T04:11:46.919Z,93.10
2019-05-19T04:12:51.138Z,93.20
2019-05-19T04:13:55.921Z,93.20
2019-05-19T04:15:00.119Z,93.20
2019-05-19T04:16:04.928Z,93.20
2019-05-19T04:17:09.143Z,93.20
2019-05-19T04:18:13.915Z,93.20
2019-05-19T04:19:18.137Z,93.20
2019-05-19T04:20:22.910Z,93.10
2019-05-19T04:21:27.159Z,93.10
2019-05-19T04:22:31.949Z,93.20
2019-05-19T04:23:36.171Z,93.20
2019-05-19T04:24:44.792Z,93.20
2019-05-19T04:25:49.043Z,93.10
2019-05-19T04:26:53.835Z,93.10
2019-05-19T04:27:58.069Z,93.20
2019-05-19T04:29:02.840Z,93.20
2019-05-19T04:30:07.111Z,93.20
2019-05-19T04:31:12.010Z,93.20
2019-05-19T04:32:16.219Z,93.20
2019-05-19T04:33:20.986Z,93.20
2019-05-19T04:34:25.210Z,93.20
2019-05-19T04:35:29.984Z,93.20
2019-05-19T04:36:34.230Z,93.10
2019-05-19T04:37:38.999Z,93.20
2019-05-19T04:38:43.219Z,93.20
2019-05-19T04:39:48.007Z,93.20
2019-05-19T04:40:52.264Z,93.10
2019-05-19T04:41:57.043Z,93.00
2019-05-19T04:43:01.286Z,93.10
2019-05-19T04:44:06.248Z,93.10
2019-05-19T04:45:10.498Z,93.00
2019-05-19T04:46:15.320Z,93.00
2019-05-19T04:47:19.531Z,92.90
2019-05-19T04:48:24.358Z,92.90
2019-05-19T04:49:28.616Z,92.90
2019-05-19T04:50:33.413Z,93.00
2019-05-19T04:51:37.650Z,93.10
2019-05-19T04:52:42.495Z,93.00
2019-05-19T04:53:46.743Z,93.10
2019-05-19T04:54:51.529Z,93.00
2019-05-19T04:55:55.740Z,93.00
2019-05-19T04:57:00.547Z,93.00
2019-05-19T04:58:04.769Z,92.90
2019-05-19T04:59:09.539Z,93.00
2019-05-19T05:00:13.760Z,92.90
2019-05-19T05:01:18.575Z,92.90
2019-05-19T05:02:22.847Z,92.90
2019-05-19T05:03:27.627Z,92.90
2019-05-19T05:04:31.848Z,92.80
2019-05-19T05:05:36.623Z,92.80
2019-05-19T05:06:40.873Z,92.90
2019-05-19T05:07:45.649Z,92.80
2019-05-19T05:08:49.863Z,92.70
2019-05-19T05:09:54.644Z,92.70
2019-05-19T05:10:58.865Z,92.60
2019-05-19T05:12:03.691Z,92.60
2019-05-19T05:13:07.914Z,92.70
2019-05-19T05:14:12.716Z,92.70
2019-05-19T05:15:16.981Z,92.70
2019-05-19T05:16:21.724Z,92.70
2019-05-19T05:17:25.986Z,92.60
2019-05-19T05:18:30.755Z,92.50
2019-05-19T05:19:34.966Z,92.40
2019-05-19T05:20:39.751Z,92.50
2019-05-19T05:21:43.999Z,92.50
2019-05-19T05:22:48.766Z,92.40
2019-05-19T05:23:53.867Z,92.40
2019-05-19T05:24:58.850Z,92.40
2019-05-19T05:26:03.075Z,92.50
2019-05-19T05:27:07.898Z,92.20
2019-05-19T05:28:12.121Z,92.20
2019-05-19T05:29:17.015Z,92.10
2019-05-19T05:30:21.326Z,91.90
2019-05-19T05:31:26.144Z,91.80
2019-05-19T05:32:30.390Z,91.50
2019-05-19T05:33:35.167Z,91.40
2019-05-19T05:34:39.390Z,90.60
2019-05-19T05:35:44.092Z,90.10
2019-05-19T05:36:48.319Z,89.70
2019-05-19T05:37:53.147Z,89.10
2019-05-19T05:38:57.374Z,88.40
2019-05-19T05:40:02.150Z,88.20
2019-05-19T05:41:06.378Z,87.30
2019-05-19T05:42:12.228Z,87.90
2019-05-19T05:43:16.456Z,87.50
2019-05-19T05:44:21.267Z,87.30
2019-05-19T05:45:25.503Z,87.10
2019-05-19T05:46:30.294Z,86.80
2019-05-19T05:47:34.563Z,87.00
2019-05-19T05:48:39.338Z,86.50
2019-05-19T05:49:43.562Z,87.10
2019-05-19T05:50:48.339Z,87.50
2019-05-19T05:51:52.553Z,87.80
2019-05-19T05:52:57.351Z,87.40
2019-05-19T05:54:01.569Z,87.70
2019-05-19T05:55:06.387Z,87.70
2019-05-19T05:56:10.618Z,87.40
2019-05-19T05:57:15.386Z,87.50
2019-05-19T05:58:19.642Z,87.70
2019-05-19T05:59:24.422Z,87.70
2019-05-19T06:00:28.649Z,87.00
2019-05-19T06:01:33.427Z,86.20
2019-05-19T06:02:37.816Z,86.80
2019-05-19T06:03:42.597Z,86.60
2019-05-19T06:04:46.842Z,86.40
2019-05-19T06:05:51.625Z,86.60
2019-05-19T06:06:55.896Z,85.80
2019-05-19T06:08:00.719Z,85.70
2019-05-19T06:09:06.204Z,85.60
2019-05-19T06:10:11.022Z,85.80
2019-05-19T06:11:15.259Z,85.50
2019-05-19T06:12:20.130Z,85.20
2019-05-19T06:13:24.547Z,85.00
2019-05-19T06:14:29.340Z,85.20
2019-05-19T06:15:33.641Z,85.00
2019-05-19T06:16:38.445Z,84.30
2019-05-19T06:17:42.711Z,84.10
2019-05-19T06:18:47.471Z,83.80
2019-05-19T06:19:51.666Z,83.30
2019-05-19T06:20:56.432Z,83.50
2019-05-19T06:22:00.663Z,83.20
2019-05-19T06:23:05.483Z,83.20
2019-05-19T06:24:09.698Z,83.90
2019-05-19T06:25:14.587Z,83.00
2019-05-19T06:26:18.819Z,81.90
2019-05-19T06:27:23.592Z,81.80
2019-05-19T06:28:27.948Z,81.80
2019-05-19T06:29:32.772Z,81.30
2019-05-19T06:30:37.004Z,80.20
2019-05-19T06:31:41.772Z,79.70
2019-05-19T06:32:49.278Z,79.70
2019-05-19T06:33:54.034Z,78.80
2019-05-19T06:34:58.272Z,79.10
2019-05-19T06:36:03.067Z,79.40
2019-05-19T06:37:07.296Z,78.50
2019-05-19T06:38:12.128Z,78.80
2019-05-19T06:39:16.571Z,79.00
2019-05-19T06:40:21.347Z,78.70
2019-05-19T06:41:25.758Z,78.30
2019-05-19T06:42:30.548Z,78.20
2019-05-19T06:43:34.851Z,77.90
2019-05-19T06:44:40.072Z,77.90
2019-05-19T06:45:44.359Z,78.10
2019-05-19T06:46:49.238Z,78.20
2019-05-19T06:47:53.484Z,78.30
2019-05-19T06:48:58.513Z,78.60
2019-05-19T06:50:02.931Z,78.20
2019-05-19T06:51:07.752Z,78.00
2019-05-19T06:52:12.107Z,78.30
2019-05-19T06:53:16.927Z,78.30
2019-05-19T06:54:21.160Z,79.10
2019-05-19T06:55:25.980Z,79.20
2019-05-19T06:56:30.168Z,79.30
2019-05-19T06:57:34.951Z,79.90
2019-05-19T06:58:39.202Z,79.30
2019-05-19T06:59:43.994Z,78.90
2019-05-19T07:00:48.366Z,78.70
2019-05-19T07:01:53.300Z,77.20
2019-05-19T07:02:57.699Z,77.30
2019-05-19T07:04:02.518Z,77.50
2019-05-19T07:05:06.783Z,77.00
2019-05-19T07:06:11.604Z,77.20
2019-05-19T07:07:15.780Z,76.80
2019-05-19T07:08:20.748Z,77.40
2019-05-19T07:09:25.001Z,77.70
2019-05-19T07:10:29.827Z,77.20
2019-05-19T07:11:34.048Z,77.30
2019-05-19T07:12:38.829Z,76.40
2019-05-19T07:13:43.132Z,76.20
2019-05-19T07:14:47.922Z,76.70
2019-05-19T07:15:52.144Z,77.10
2019-05-19T07:16:56.960Z,76.90
2019-05-19T07:18:01.176Z,76.60
2019-05-19T07:19:05.992Z,76.70
2019-05-19T07:20:10.203Z,77.20
2019-05-19T07:21:14.990Z,77.00
2019-05-19T07:22:19.218Z,76.10
2019-05-19T07:23:28.306Z,75.50
2019-05-19T07:24:29.911Z,75.70
2019-05-19T07:25:34.683Z,75.90
2019-05-19T07:26:38.923Z,75.40
2019-05-19T07:27:43.700Z,75.10
2019-05-19T07:28:47.964Z,75.30
2019-05-19T07:29:52.744Z,75.10
2019-05-19T07:30:57.019Z,74.00
2019-05-19T07:32:01.795Z,74.00
2019-05-19T07:33:06.002Z,73.90
2019-05-19T07:34:10.819Z,73.40
2019-05-19T07:35:15.043Z,73.50
2019-05-19T07:36:19.862Z,73.30
2019-05-19T07:37:24.074Z,73.50
2019-05-19T07:38:28.839Z,74.00
2019-05-19T07:39:33.090Z,73.90
2019-05-19T07:40:37.864Z,74.30
2019-05-19T07:41:42.086Z,74.00
2019-05-19T07:42:46.866Z,73.80
2019-05-19T07:43:51.079Z,74.10
2019-05-19T07:44:56.056Z,74.00
2019-05-19T07:46:00.263Z,74.40
2019-05-19T07:47:05.051Z,74.60
2019-05-19T07:48:09.259Z,74.70
2019-05-19T07:49:14.047Z,74.80
2019-05-19T07:50:18.292Z,72.10
2019-05-19T07:51:23.068Z,73.20
2019-05-19T07:52:27.294Z,73.20
2019-05-19T07:53:42.631Z,73.60
2019-05-19T07:54:37.967Z,74.30
2019-05-19T07:55:42.739Z,73.00
2019-05-19T07:56:46.980Z,72.40
2019-05-19T07:57:51.828Z,71.90
2019-05-19T07:58:56.051Z,71.80
2019-05-19T08:00:00.906Z,71.90
2019-05-19T08:01:05.122Z,72.30
2019-05-19T08:02:09.895Z,72.30
2019-05-19T08:03:14.132Z,71.60
2019-05-19T08:04:18.926Z,70.70
2019-05-19T08:05:23.188Z,71.10
2019-05-19T08:06:27.984Z,71.20
2019-05-19T08:07:32.210Z,71.30
2019-05-19T08:08:36.979Z,71.00
2019-05-19T08:09:41.219Z,70.50
2019-05-19T08:10:46.274Z,70.80
2019-05-19T08:11:50.534Z,70.10
2019-05-19T08:12:55.423Z,69.00
2019-05-19T08:13:59.660Z,68.10
2019-05-19T08:15:04.647Z,67.00
2019-05-19T08:16:08.867Z,67.70
2019-05-19T08:17:13.631Z,67.70
2019-05-19T08:18:17.857Z,66.30
2019-05-19T08:19:22.643Z,65.80
2019-05-19T08:20:26.886Z,64.50
2019-05-19T08:21:31.676Z,62.50
2019-05-19T08:22:35.915Z,61.80
2019-05-19T08:23:40.712Z,60.50
2019-05-19T08:24:44.934Z,60.40
2019-05-19T08:25:49.883Z,57.10
2019-05-19T08:26:54.130Z,57.40
2019-05-19T08:28:07.364Z,56.30
2019-05-19T08:29:04.854Z,54.80
2019-05-19T08:30:09.646Z,53.60
2019-05-19T08:31:13.901Z,53.10
2019-05-19T08:32:18.684Z,52.10
2019-05-19T08:33:23.023Z,51.90
2019-05-19T08:34:27.964Z,51.80
2019-05-19T08:35:32.251Z,51.20
2019-05-19T08:36:37.009Z,48.90
2019-05-19T08:37:41.237Z,48.10
2019-05-19T08:38:46.049Z,47.00
2019-05-19T08:39:50.263Z,47.00
2019-05-19T08:40:55.135Z,45.60
2019-05-19T08:41:59.646Z,44.40
2019-05-19T08:43:04.455Z,44.40
2019-05-19T08:44:08.763Z,43.40
2019-05-19T08:45:13.587Z,41.90
2019-05-19T08:46:17.831Z,40.50
2019-05-19T08:47:22.616Z,39.80
2019-05-19T08:48:26.864Z,38.20
2019-05-19T08:49:31.683Z,37.80
2019-05-19T08:50:36.017Z,37.50
2019-05-19T08:51:40.886Z,37.80
2019-05-19T08:52:45.078Z,38.00
2019-05-19T08:53:49.845Z,38.20
2019-05-19T08:54:54.066Z,37.60
2019-05-19T08:55:58.889Z,37.40
2019-05-19T08:57:03.109Z,37.30
2019-05-19T08:58:07.882Z,38.00
2019-05-19T08:59:12.123Z,38.00
2019-05-19T09:00:16.900Z,37.80
2019-05-19T09:01:21.152Z,37.80
2019-05-19T09:02:25.931Z,37.10
2019-05-19T09:03:30.155Z,36.70
2019-05-19T09:04:35.217Z,36.40
2019-05-19T09:05:39.448Z,35.50
2019-05-19T09:06:44.286Z,33.90
2019-05-19T09:07:48.434Z,34.20
2019-05-19T09:08:53.207Z,33.30
2019-05-19T09:09:57.414Z,33.70
2019-05-19T09:11:02.237Z,32.60
2019-05-19T09:12:06.479Z,32.40
2019-05-19T09:13:11.266Z,31.90
2019-05-19T09:14:15.538Z,32.00
2019-05-19T09:15:20.327Z,31.80
2019-05-19T09:16:24.625Z,31.20
2019-05-19T09:17:29.441Z,31.00
2019-05-19T09:18:33.669Z,31.60
2019-05-19T09:19:38.433Z,31.40
2019-05-19T09:20:42.658Z,32.00
2019-05-19T09:21:47.488Z,30.80
2019-05-19T09:22:51.773Z,30.50
2019-05-19T09:23:56.675Z,31.70
2019-05-19T09:25:00.976Z,31.00
2019-05-19T09:26:05.749Z,32.00
2019-05-19T09:27:09.993Z,33.10
2019-05-19T09:28:14.777Z,32.80
2019-05-19T09:29:19.000Z,33.10
2019-05-19T09:30:23.784Z,34.30
2019-05-19T09:31:28.028Z,34.50
2019-05-19T09:32:32.882Z,35.10
2019-05-19T09:33:37.204Z,35.30
2019-05-19T09:34:41.968Z,35.30
2019-05-19T09:35:46.320Z,35.20
2019-05-19T09:36:51.124Z,35.60
2019-05-19T09:37:55.349Z,35.00
2019-05-19T09:39:00.122Z,34.00
2019-05-19T09:40:04.828Z,33.70
2019-05-19T09:41:09.594Z,32.60
2019-05-19T09:42:13.842Z,32.40
2019-05-19T09:43:18.615Z,32.60
2019-05-19T09:44:22.826Z,32.70
2019-05-19T09:45:27.669Z,32.30
2019-05-19T09:46:31.976Z,32.30
2019-05-19T09:47:37.101Z,31.40
2019-05-19T09:48:41.598Z,30.40
2019-05-19T09:49:46.458Z,30.50
2019-05-19T09:50:50.792Z,29.90
2019-05-19T09:51:55.612Z,30.00
2019-05-19T09:52:59.832Z,30.10
2019-05-19T09:54:04.612Z,29.90
2019-05-19T09:55:08.836Z,29.60
2019-05-19T09:56:13.609Z,29.60
2019-05-19T09:57:17.855Z,29.90
2019-05-19T09:58:22.633Z,30.00
2019-05-19T09:59:27.066Z,30.00
2019-05-19T10:00:32.052Z,29.80
2019-05-19T10:01:36.269Z,29.80
2019-05-19T10:02:41.073Z,29.50
2019-05-19T10:03:45.308Z,29.90
2019-05-19T10:04:50.092Z,30.00
2019-05-19T10:05:54.283Z,30.80
2019-05-19T10:06:59.268Z,30.30
2019-05-19T10:08:03.734Z,29.90
2019-05-19T10:09:11.901Z,30.60
2019-05-19T10:10:18.109Z,30.00
2019-05-19T10:11:52.806Z,29.80
2019-05-19T10:12:57.070Z,30.00
2019-05-19T10:14:02.004Z,29.70
2019-05-19T10:15:07.121Z,29.70
2019-05-19T10:16:11.912Z,29.70
2019-05-19T10:17:16.190Z,29.40
2019-05-19T10:18:20.976Z,29.60
2019-05-19T10:19:25.195Z,29.30
2019-05-19T10:20:29.962Z,29.30
2019-05-19T10:21:34.115Z,29.40
2019-05-19T10:22:38.927Z,28.70
2019-05-19T10:23:43.158Z,28.90
2019-05-19T10:25:03.800Z,29.40
2019-05-19T10:25:53.815Z,29.50
2019-05-19T10:26:58.617Z,30.00
2019-05-19T10:28:02.871Z,29.90
2019-05-19T10:29:07.656Z,30.20
2019-05-19T10:30:11.867Z,30.40
2019-05-19T10:31:16.666Z,30.10
2019-05-19T10:32:20.879Z,30.00
2019-05-19T10:33:25.695Z,29.90
2019-05-19T10:34:29.910Z,29.90
2019-05-19T10:35:34.704Z,30.20
2019-05-19T10:36:38.973Z,31.10
2019-05-19T10:37:43.798Z,31.80
2019-05-19T10:38:48.041Z,32.60
2019-05-19T10:39:52.807Z,33.70
2019-05-19T10:40:56.965Z,33.40
2019-05-19T10:42:01.897Z,34.00
2019-05-19T10:43:06.390Z,34.40
2019-05-19T10:44:11.180Z,35.00
2019-05-19T10:45:15.396Z,34.70
2019-05-19T10:46:20.190Z,35.20
2019-05-19T10:47:24.415Z,34.20
2019-05-19T10:48:29.384Z,34.10
2019-05-19T10:49:33.614Z,34.30
2019-05-19T10:50:38.388Z,33.90
2019-05-19T10:51:42.604Z,34.20
2019-05-19T10:52:47.420Z,34.60
2019-05-19T10:53:51.650Z,35.20
2019-05-19T10:54:56.419Z,35.30
2019-05-19T10:56:00.638Z,35.80
2019-05-19T10:57:05.424Z,36.20
2019-05-19T10:58:09.667Z,36.40
2019-05-19T10:59:14.738Z,36.00
2019-05-19T11:00:19.102Z,36.70
2019-05-19T11:01:23.873Z,36.40
2019-05-19T11:02:28.092Z,36.10
2019-05-19T11:03:32.921Z,36.50
2019-05-19T11:04:37.120Z,35.20
2019-05-19T11:05:42.804Z,34.90
2019-05-19T11:06:47.072Z,32.60
2019-05-19T11:07:51.838Z,32.00
2019-05-19T11:08:56.429Z,31.80
2019-05-19T11:10:01.198Z,31.80
2019-05-19T11:11:05.412Z,31.40
2019-05-19T11:12:10.246Z,30.80
2019-05-19T11:13:14.471Z,30.80
2019-05-19T11:14:19.262Z,31.20
2019-05-19T11:15:23.490Z,31.20
2019-05-19T11:16:28.268Z,30.30
2019-05-19T11:17:32.486Z,30.30
2019-05-19T11:18:37.289Z,30.70
2019-05-19T11:19:41.510Z,30.90
2019-05-19T11:20:46.278Z,31.20
2019-05-19T11:21:50.511Z,31.30
2019-05-19T11:22:55.280Z,31.70
2019-05-19T11:23:59.526Z,31.40
2019-05-19T11:25:04.336Z,31.60
2019-05-19T11:26:08.563Z,32.10
2019-05-19T11:27:13.348Z,32.40
2019-05-19T11:28:17.578Z,31.60
2019-05-19T11:29:22.376Z,32.10
2019-05-19T11:30:26.595Z,32.30
2019-05-19T11:31:31.454Z,32.60
2019-05-19T11:32:35.737Z,33.30
2019-05-19T11:33:40.560Z,33.50
2019-05-19T11:34:44.808Z,33.90
2019-05-19T11:35:49.606Z,35.00
2019-05-19T11:36:54.251Z,35.70
2019-05-19T11:37:59.175Z,35.40
2019-05-19T11:39:04.968Z,36.00
2019-05-19T11:40:09.775Z,36.40
2019-05-19T11:41:13.988Z,37.20
2019-05-19T11:42:18.765Z,37.10
2019-05-19T11:43:23.003Z,37.80
2019-05-19T11:44:27.822Z,36.60
2019-05-19T11:45:32.074Z,37.30
2019-05-19T11:46:36.852Z,37.50
2019-05-19T11:47:41.063Z,38.10
2019-05-19T11:48:45.859Z,38.70
2019-05-19T11:49:50.130Z,38.30
2019-05-19T11:50:54.915Z,38.30
2019-05-19T11:51:59.132Z,38.90
2019-05-19T11:53:04.129Z,38.60
2019-05-19T11:54:08.379Z,39.30
2019-05-19T11:55:13.155Z,39.80
2019-05-19T11:56:17.370Z,40.00
2019-05-19T11:57:22.141Z,39.70
2019-05-19T11:58:26.371Z,40.20
2019-05-19T11:59:31.178Z,39.50
2019-05-19T12:00:35.396Z,40.50
2019-05-19T12:01:40.177Z,39.50
2019-05-19T12:02:44.446Z,39.40
2019-05-19T12:03:49.235Z,40.10
2019-05-19T12:04:53.538Z,40.70
2019-05-19T12:05:58.293Z,40.30
2019-05-19T12:07:02.542Z,40.80
2019-05-19T12:08:07.300Z,41.30
2019-05-19T12:09:11.519Z,41.20
2019-05-19T12:10:16.323Z,40.40
2019-05-19T12:11:20.528Z,39.50
2019-05-19T12:12:25.376Z,39.50
2019-05-19T12:13:29.615Z,39.80
2019-05-19T12:14:34.414Z,40.70
2019-05-19T12:15:38.630Z,41.00
2019-05-19T12:16:43.468Z,41.50
2019-05-19T12:17:47.744Z,42.00
2019-05-19T12:18:52.514Z,42.30
2019-05-19T12:19:56.808Z,41.00
2019-05-19T12:21:01.574Z,41.10
2019-05-19T12:22:05.782Z,41.40
2019-05-19T12:23:10.548Z,41.90
2019-05-19T12:24:14.835Z,41.90
2019-05-19T12:25:19.637Z,42.50
2019-05-19T12:26:23.943Z,42.00
2019-05-19T12:27:28.724Z,42.30
2019-05-19T12:28:32.998Z,42.60
2019-05-19T12:29:37.711Z,42.60
2019-05-19T12:30:41.951Z,41.90
2019-05-19T12:31:46.772Z,41.00
2019-05-19T12:32:51.015Z,40.70
2019-05-19T12:33:55.808Z,42.30
2019-05-19T12:35:00.064Z,42.60
2019-05-19T12:36:04.820Z,43.00
2019-05-19T12:37:09.040Z,43.10
2019-05-19T12:38:13.811Z,43.60
2019-05-19T12:39:18.034Z,43.60
2019-05-19T12:40:22.929Z,44.20
2019-05-19T12:41:27.183Z,44.00
2019-05-19T12:42:31.964Z,43.70
2019-05-19T12:43:36.183Z,43.00
2019-05-19T12:44:40.972Z,43.10
2019-05-19T12:45:45.344Z,41.80
2019-05-19T12:46:50.088Z,42.20
2019-05-19T12:47:54.349Z,42.00
2019-05-19T12:48:59.127Z,41.20
2019-05-19T12:50:03.451Z,41.80
2019-05-19T12:51:08.387Z,40.50
2019-05-19T12:52:12.605Z,41.00
2019-05-19T12:53:17.379Z,41.80
2019-05-19T12:54:21.611Z,42.30
2019-05-19T12:55:26.405Z,41.10
2019-05-19T12:56:39.171Z,41.00
2019-05-19T12:57:37.039Z,40.50
2019-05-19T12:58:41.248Z,40.50
2019-05-19T12:59:46.018Z,40.50
2019-05-19T13:00:50.271Z,40.60
2019-05-19T13:01:55.039Z,40.30
2019-05-19T13:02:59.263Z,40.60
2019-05-19T13:04:04.039Z,39.70
2019-05-19T13:05:08.262Z,40.20
2019-05-19T13:06:13.059Z,40.00
2019-05-19T13:07:17.276Z,39.50
2019-05-19T13:08:22.048Z,39.40
2019-05-19T13:09:26.274Z,38.40
2019-05-19T13:10:31.084Z,38.30
2019-05-19T13:11:35.291Z,38.80
2019-05-19T13:12:40.077Z,38.60
2019-05-19T13:13:44.303Z,39.20
2019-05-19T13:14:49.079Z,39.00
2019-05-19T13:15:53.345Z,39.10
2019-05-19T13:16:58.112Z,38.60
2019-05-19T13:18:02.318Z,38.90
2019-05-19T13:19:07.083Z,39.30
2019-05-19T13:20:12.867Z,38.90
2019-05-19T13:21:17.613Z,38.90
2019-05-19T13:22:21.827Z,39.40
2019-05-19T13:23:26.602Z,39.40
2019-05-19T13:24:30.843Z,39.30
2019-05-19T13:25:35.644Z,39.20
2019-05-19T13:26:54.159Z,38.80
2019-05-19T13:27:46.364Z,39.80
2019-05-19T13:28:50.574Z,37.90
2019-05-19T13:29:55.344Z,38.40
2019-05-19T13:30:59.599Z,40.00
2019-05-19T13:32:04.367Z,39.40
2019-05-19T13:33:08.592Z,38.30
2019-05-19T13:34:13.363Z,38.90
2019-05-19T13:35:17.590Z,38.80
2019-05-19T13:36:22.383Z,39.00
2019-05-19T13:37:26.671Z,39.40
2019-05-19T13:38:31.354Z,38.90
2019-05-19T13:39:35.572Z,39.00
2019-05-19T13:40:40.381Z,39.00
2019-05-19T13:41:44.613Z,39.60
2019-05-19T13:42:49.387Z,39.30
2019-05-19T13:43:53.848Z,40.20
2019-05-19T13:44:58.619Z,40.20
2019-05-19T13:46:02.868Z,39.70
2019-05-19T13:47:07.675Z,39.10
2019-05-19T13:48:11.940Z,39.20
2019-05-19T13:49:16.699Z,40.10
2019-05-19T13:50:20.937Z,39.80
2019-05-19T13:51:25.734Z,38.60
2019-05-19T13:52:29.947Z,39.10